Time;durP1;ratioP1;P1;durP2;ratioP2;P2;SDS_P1;SDS_P2;PMS_P1;PMS_P2;Temp;Humidity;BMP_temperature;BMP_pressure;BME280_temperature;BME280_humidity;BME280_pressure;Samples;Min_cycle;Max_cycle;Signal;HPM_P1;HPM_P2
2022/04/28 00:00:29;;;;;;;15.20;13.80;;;6.50;99.90;;;;;;5053137;28;20203;-77
2022/04/28 00:02:56;;;;;;;13.90;12.70;;;6.50;99.90;;;;;;5052896;28;20219;-78
2022/04/28 00:05:24;;;;;;;14.23;12.87;;;6.40;99.90;;;;;;5052746;28;20302;-78
2022/04/28 00:07:52;;;;;;;14.20;13.00;;;6.40;99.90;;;;;;5052954;28;20607;-78
2022/04/28 00:10:20;;;;;;;15.33;13.93;;;6.40;99.90;;;;;;5052570;28;20220;-77
2022/04/28 00:12:47;;;;;;;14.83;13.63;;;6.40;99.90;;;;;;5052819;28;20195;-78
2022/04/28 00:15:14;;;;;;;15.00;13.70;;;6.30;99.90;;;;;;5053161;28;20668;-78
2022/04/28 00:17:41;;;;;;;14.63;13.43;;;6.20;99.90;;;;;;5052995;28;20199;-79
2022/04/28 00:20:09;;;;;;;15.17;13.87;;;6.20;99.90;;;;;;5052017;28;20219;-78
2022/04/28 00:22:36;;;;;;;14.63;13.40;;;6.10;99.90;;;;;;5052558;28;20659;-77
2022/04/28 00:25:06;;;;;;;14.83;13.57;;;6.10;99.90;;;;;;5052808;28;20203;-77
2022/04/28 00:27:33;;;;;;;15.33;14.03;;;6.00;99.90;;;;;;5085600;28;20222;-77
2022/04/28 00:30:00;;;;;;;16.03;14.53;;;6.00;99.90;;;;;;5052270;28;20219;-78
2022/04/28 00:32:27;;;;;;;16.40;14.93;;;6.00;99.90;;;;;;5051911;28;20207;-79
2022/04/28 00:34:56;;;;;;;14.63;13.30;;;6.00;99.90;;;;;;5052365;28;20206;-78
2022/04/28 00:37:23;;;;;;;15.10;13.80;;;6.00;99.90;;;;;;5052469;28;20238;-77
2022/04/28 00:39:51;;;;;;;13.53;12.43;;;6.00;99.90;;;;;;5052180;28;20223;-77
2022/04/28 00:42:20;;;;;;;14.37;13.07;;;5.90;99.90;;;;;;5051848;28;20679;-76
2022/04/28 00:44:47;;;;;;;15.70;14.23;;;5.90;99.90;;;;;;5052121;28;20687;-77
2022/04/28 00:47:14;;;;;;;16.77;15.27;;;5.90;99.90;;;;;;5077118;28;20227;-78
2022/04/28 00:52:29;;;;;;;16.40;14.90;;;5.80;99.90;;;;;;5079317;28;20191;-79
2022/04/28 00:54:57;;;;;;;16.97;15.37;;;5.80;99.90;;;;;;5051954;28;20207;-77
2022/04/28 00:57:27;;;;;;;16.60;15.17;;;5.80;99.90;;;;;;5051766;28;20256;-77
2022/04/28 00:59:54;;;;;;;15.97;14.63;;;5.80;99.90;;;;;;5046084;28;20314;-78
2022/04/28 01:02:21;;;;;;;16.37;14.97;;;5.70;99.90;;;;;;5051581;28;20720;-78
2022/04/28 01:04:49;;;;;;;15.93;14.43;;;5.70;99.90;;;;;;5051735;28;20206;-78
2022/04/28 01:07:17;;;;;;;15.87;14.47;;;5.70;99.90;;;;;;5051621;28;20215;-77
2022/04/28 01:09:44;;;;;;;15.63;14.23;;;5.70;99.90;;;;;;5051645;28;20691;-78
2022/04/28 01:12:16;;;;;;;16.40;15.00;;;5.60;99.90;;;;;;5051674;28;20200;-78
2022/04/28 01:14:50;;;;;;;16.13;14.73;;;5.50;99.90;;;;;;5070008;28;20195;-78
2022/04/28 01:17:18;;;;;;;16.37;14.87;;;5.50;99.90;;;;;;5051555;28;20693;-78
2022/04/28 01:19:53;;;;;;;16.43;15.03;;;5.40;99.90;;;;;;5051562;28;20707;-78
2022/04/28 01:22:22;;;;;;;18.00;16.47;;;5.40;99.90;;;;;;5051313;28;20668;-76
2022/04/28 01:24:49;;;;;;;17.03;15.53;;;5.30;99.90;;;;;;5051478;28;20203;-78
2022/04/28 01:27:19;;;;;;;17.27;15.70;;;5.30;99.90;;;;;;5051274;28;20224;-78
2022/04/28 01:29:46;;;;;;;15.50;14.10;;;5.30;99.90;;;;;;5050758;28;20230;-77
2022/04/28 01:32:13;;;;;;;17.50;15.83;;;5.30;99.90;;;;;;5050593;28;20306;-78
2022/04/28 01:34:43;;;;;;;17.10;15.67;;;5.30;99.90;;;;;;5051216;28;20203;-78
2022/04/28 01:37:10;;;;;;;18.50;16.90;;;5.20;99.90;;;;;;5050961;28;20195;-77
2022/04/28 01:39:40;;;;;;;19.03;17.33;;;5.20;99.90;;;;;;5051129;28;20216;-76
2022/04/28 01:42:07;;;;;;;18.33;16.73;;;5.20;99.90;;;;;;5050799;28;20198;-78
2022/04/28 01:44:34;;;;;;;18.30;16.70;;;5.20;99.90;;;;;;5050909;28;20211;-78
2022/04/28 01:47:01;;;;;;;17.40;15.70;;;5.20;99.90;;;;;;5050237;28;20220;-78
2022/04/28 01:49:47;;;;;;;17.73;16.13;;;5.10;99.90;;;;;;5046536;28;20746;-78
2022/04/28 01:55:42;;;;;;;16.60;15.10;;;5.10;99.90;;;;;;5067337;28;20743;-78
2022/04/28 01:58:36;;;;;;;17.93;16.23;;;5.00;99.90;;;;;;5050760;28;20223;-78
2022/04/28 02:01:13;;;;;;;17.13;15.53;;;5.00;99.90;;;;;;5050676;28;20203;-77
2022/04/28 02:03:40;;;;;;;18.37;16.57;;;5.00;99.90;;;;;;5050819;28;20203;-78
2022/04/28 02:06:07;;;;;;;19.03;17.23;;;5.00;99.90;;;;;;5050566;28;20217;-78
2022/04/28 02:08:34;;;;;;;19.00;17.10;;;5.00;99.90;;;;;;5050568;28;20258;-78
2022/04/28 02:11:03;;;;;;;18.93;17.03;;;4.90;99.90;;;;;;5050350;28;20201;-76
2022/04/28 02:13:56;;;;;;;18.63;16.73;;;4.90;99.90;;;;;;5034212;28;20250;-77
2022/04/28 02:16:42;;;;;;;17.43;15.83;;;4.80;99.90;;;;;;5044722;28;20332;-78
2022/04/28 02:19:18;;;;;;;19.73;17.67;;;4.80;99.90;;;;;;5050308;28;20210;-77
2022/04/28 02:21:45;;;;;;;19.23;17.43;;;4.80;99.90;;;;;;5050234;28;20237;-78
2022/04/28 02:24:14;;;;;;;20.13;18.23;;;4.70;99.90;;;;;;5050559;28;20689;-77
2022/04/28 02:26:44;;;;;;;20.03;18.03;;;4.70;99.90;;;;;;5050202;28;20469;-78
2022/04/28 02:29:11;;;;;;;18.70;17.10;;;4.60;99.90;;;;;;5050112;28;20225;-79
2022/04/28 02:31:41;;;;;;;19.83;18.00;;;4.60;99.90;;;;;;5050080;28;20203;-78
2022/04/28 02:34:08;;;;;;;19.40;17.50;;;4.60;99.90;;;;;;5050473;28;20202;-77
2022/04/28 02:36:39;;;;;;;19.67;17.77;;;4.60;99.90;;;;;;5050346;28;20614;-76
2022/04/28 02:39:06;;;;;;;19.57;17.80;;;4.60;99.90;;;;;;5075270;28;20222;-77
2022/04/28 02:41:35;;;;;;;20.60;18.40;;;4.60;99.90;;;;;;5050584;28;20207;-78
2022/04/28 02:44:06;;;;;;;20.67;18.63;;;4.60;99.90;;;;;;5054641;28;20282;-81
2022/04/28 02:46:33;;;;;;;20.13;18.43;;;4.60;99.90;;;;;;5054485;28;20596;-80
2022/04/28 02:49:06;;;;;;;18.47;16.77;;;4.50;99.90;;;;;;5059348;28;20634;-81
2022/04/28 02:51:38;;;;;;;19.57;17.83;;;4.50;99.90;;;;;;5056831;28;20198;-80
2022/04/28 02:54:06;;;;;;;20.17;18.27;;;4.50;99.90;;;;;;5092787;28;20286;-83
2022/04/28 02:56:37;;;;;;;19.90;18.20;;;4.50;99.90;;;;;;5050180;28;20291;-83
2022/04/28 02:59:09;;;;;;;21.53;19.57;;;4.50;99.90;;;;;;5088578;28;20215;-83
2022/04/28 03:01:36;;;;;;;21.60;19.60;;;4.50;99.90;;;;;;5088337;28;20210;-83
2022/04/28 03:04:05;;;;;;;21.33;19.17;;;4.40;99.90;;;;;;5074528;28;20641;-82
2022/04/28 03:12:01;;;;;;;22.90;20.80;;;4.40;99.90;;;;;;5070489;28;20192;-81
2022/04/28 03:14:29;;;;;;;22.30;20.30;;;4.40;99.90;;;;;;5073605;28;20203;-81
2022/04/28 03:16:56;;;;;;;20.60;18.90;;;4.40;99.90;;;;;;5061482;28;20227;-79
2022/04/28 03:19:23;;;;;;;21.70;19.80;;;4.30;99.90;;;;;;5051652;28;20227;-82
2022/04/28 03:21:53;;;;;;;24.97;22.47;;;4.30;99.90;;;;;;5075613;28;20290;-79
2022/04/28 03:24:21;;;;;;;21.57;19.63;;;4.30;99.90;;;;;;5053160;28;20567;-80
2022/04/28 03:26:48;;;;;;;21.70;19.70;;;4.20;99.90;;;;;;5054193;28;20237;-81
2022/04/28 03:29:17;;;;;;;21.27;19.17;;;4.20;99.90;;;;;;5053995;28;20611;-81
2022/04/28 03:31:45;;;;;;;22.03;19.83;;;4.20;99.90;;;;;;5053649;28;20199;-78
2022/04/28 03:34:35;;;;;;;21.93;19.93;;;4.10;99.90;;;;;;5049078;28;20207;-81
2022/04/28 03:37:04;;;;;;;22.30;20.13;;;4.10;99.90;;;;;;5053952;28;20191;-80
2022/04/28 03:39:35;;;;;;;21.53;19.43;;;4.10;99.90;;;;;;5053543;28;20918;-80
2022/04/28 03:42:02;;;;;;;21.63;19.83;;;4.10;99.90;;;;;;5053736;28;20446;-79
2022/04/28 03:44:29;;;;;;;21.07;19.17;;;4.10;99.90;;;;;;5079055;28;20192;-78
2022/04/28 03:46:58;;;;;;;20.43;18.63;;;4.10;99.90;;;;;;5078510;28;20531;-79
2022/04/28 03:49:26;;;;;;;21.67;19.77;;;4.10;99.90;;;;;;5051932;28;20246;-79
2022/04/28 03:51:53;;;;;;;22.27;20.00;;;4.10;99.90;;;;;;5052931;28;20233;-79
2022/04/28 03:54:21;;;;;;;21.50;19.30;;;4.10;99.90;;;;;;5052080;28;20442;-79
2022/04/28 03:56:48;;;;;;;22.47;20.43;;;4.00;99.90;;;;;;5052799;28;20526;-79
2022/04/28 03:59:15;;;;;;;22.97;20.67;;;4.00;99.90;;;;;;5052828;28;20315;-79
2022/04/28 04:02:01;;;;;;;23.13;20.93;;;4.00;99.90;;;;;;5053597;28;20459;-79
2022/04/28 04:04:28;;;;;;;22.33;20.33;;;4.00;99.90;;;;;;5053789;28;20453;-79
2022/04/28 04:07:02;;;;;;;22.33;20.30;;;4.00;99.90;;;;;;5052908;28;20207;-78
2022/04/28 04:09:35;;;;;;;23.90;21.60;;;4.00;99.90;;;;;;5054259;28;20475;-79
2022/04/28 04:12:02;;;;;;;23.57;21.43;;;4.00;99.90;;;;;;5052791;28;20740;-78
2022/04/28 04:14:43;;;;;;;23.43;21.07;;;4.00;99.90;;;;;;5053011;28;20946;-78
2022/04/28 04:17:12;;;;;;;23.83;21.47;;;4.00;99.90;;;;;;5052838;28;20969;-78
2022/04/28 04:19:39;;;;;;;24.30;21.87;;;4.00;99.90;;;;;;5052798;28;20493;-78
2022/04/28 04:22:06;;;;;;;25.50;23.00;;;4.10;99.90;;;;;;5085880;28;20230;-78
2022/04/28 04:24:34;;;;;;;24.03;21.73;;;4.00;99.90;;;;;;5052772;28;20453;-78
2022/04/28 04:27:02;;;;;;;23.07;20.77;;;4.10;99.90;;;;;;5052803;28;20476;-79
2022/04/28 04:29:49;;;;;;;23.07;20.97;;;4.20;99.90;;;;;;5047796;28;20309;-78
2022/04/28 04:32:38;;;;;;;22.17;20.17;;;4.20;99.90;;;;;;5049228;28;20454;-78
2022/04/28 04:35:21;;;;;;;23.87;21.57;;;4.10;99.90;;;;;;5052407;28;20526;-78
2022/04/28 04:37:50;;;;;;;23.87;21.63;;;4.10;99.90;;;;;;5052975;28;20203;-78
2022/04/28 04:40:17;;;;;;;25.53;22.93;;;4.10;99.90;;;;;;5052862;28;20232;-78
2022/04/28 04:42:45;;;;;;;23.30;21.00;;;4.20;99.90;;;;;;5052253;28;20843;-77
2022/04/28 04:45:13;;;;;;;23.27;21.07;;;4.20;99.90;;;;;;5052399;28;20445;-78
2022/04/28 04:48:17;;;;;;;25.07;22.50;;;4.30;99.90;;;;;;5034559;28;20605;-78
2022/04/28 04:50:48;;;;;;;23.53;21.23;;;4.40;99.90;;;;;;5051907;28;20532;-78
2022/04/28 04:53:30;;;;;;;22.60;20.43;;;4.50;99.90;;;;;;5052195;28;20818;-78
2022/04/28 04:55:58;;;;;;;22.97;20.77;;;4.50;99.90;;;;;;5051761;28;20286;-79
2022/04/28 04:58:27;;;;;;;17.47;13.70;;;4.60;99.90;;;;;;5077040;28;20211;-78
2022/04/28 05:00:56;;;;;;;20.40;14.90;;;4.70;99.90;;;;;;5076549;28;20444;-78
2022/04/28 05:03:27;;;;;;;19.67;16.27;;;4.90;99.90;;;;;;5053929;28;20784;-78
2022/04/28 05:06:10;;;;;;;21.43;19.33;;;5.10;99.90;;;;;;5051962;28;20245;-78
2022/04/28 05:08:49;;;;;;;22.47;20.27;;;5.70;99.90;;;;;;5052069;28;20604;-78
2022/04/28 05:11:16;;;;;;;17.53;14.90;;;6.30;99.90;;;;;;5051554;28;20590;-78
2022/04/28 05:13:54;;;;;;;17.20;15.03;;;6.80;99.90;;;;;;5052341;28;20203;-79
2022/04/28 05:16:21;;;;;;;15.43;13.60;;;7.20;99.90;;;;;;5051815;28;20210;-78
2022/04/28 05:18:59;;;;;;;14.27;12.77;;;7.60;99.90;;;;;;5051955;28;20655;-78
2022/04/28 05:21:53;;;;;;;16.57;12.93;;;7.90;99.90;;;;;;5022055;28;20214;-78
2022/04/28 05:24:39;;;;;;;17.07;13.83;;;8.30;99.90;;;;;;5045762;28;20212;-79
2022/04/28 05:27:24;;;;;;;20.57;18.67;;;8.80;99.90;;;;;;5052986;28;20217;-78
2022/04/28 05:29:52;;;;;;;16.63;14.93;;;9.20;99.90;;;;;;5053135;28;20597;-79
2022/04/28 05:32:38;;;;;;;17.73;16.10;;;9.50;99.90;;;;;;5075012;28;20195;-79
2022/04/28 05:35:28;;;;;;;14.37;12.93;;;9.70;99.90;;;;;;5051375;28;20211;-78
2022/04/28 05:37:56;;;;;;;12.97;11.67;;;9.70;99.90;;;;;;5053144;28;20206;-79
2022/04/28 05:40:23;;;;;;;15.73;14.23;;;9.80;99.90;;;;;;5078848;28;20223;-79
2022/04/28 05:45:46;;;;;;;14.97;13.60;;;10.20;99.90;;;;;;5052691;28;20568;-79
2022/04/28 05:48:18;;;;;;;15.17;13.70;;;10.40;99.90;;;;;;5076058;28;20691;-79
2022/04/28 05:50:59;;;;;;;15.57;14.27;;;10.40;99.90;;;;;;5076538;28;20200;-79
2022/04/28 05:53:26;;;;;;;15.40;13.97;;;10.30;99.90;;;;;;5052260;28;20197;-78
2022/04/28 05:55:58;;;;;;;14.13;12.87;;;10.30;99.90;;;;;;5052852;28;20222;-78
2022/04/28 05:58:36;;;;;;;15.37;14.07;;;10.30;99.90;;;;;;5052553;28;20239;-79
2022/04/28 06:01:39;;;;;;;13.57;12.27;;;10.20;99.90;;;;;;5029715;28;20234;-79
2022/04/28 06:04:08;;;;;;;16.07;14.77;;;10.20;99.90;;;;;;5068487;28;20224;-79
2022/04/28 06:06:38;;;;;;;17.67;16.20;;;9.90;99.90;;;;;;5050728;28;20199;-79
2022/04/28 06:09:13;;;;;;;14.43;13.07;;;9.90;99.90;;;;;;5051342;28;20219;-79
2022/04/28 06:11:40;;;;;;;14.83;13.53;;;10.00;99.90;;;;;;5051566;28;20202;-79
2022/04/28 06:14:07;;;;;;;13.60;12.20;;;10.00;99.90;;;;;;5051814;28;20675;-79
2022/04/28 06:17:01;;;;;;;13.80;12.40;;;10.10;99.90;;;;;;5047047;28;20206;-79
2022/04/28 06:19:29;;;;;;;14.00;12.70;;;10.30;99.90;;;;;;5051408;28;20579;-79
2022/04/28 06:22:06;;;;;;;16.77;15.27;;;10.50;99.90;;;;;;5052329;28;20202;-79
2022/04/28 06:24:41;;;;;;;15.43;14.13;;;10.70;99.90;;;;;;5051055;28;20293;-79
2022/04/28 06:27:10;;;;;;;16.00;13.00;;;10.70;99.90;;;;;;5050690;28;20207;-79
2022/04/28 06:29:39;;;;;;;18.33;16.70;;;10.80;99.90;;;;;;5076120;28;20743;-79
2022/04/28 06:32:09;;;;;;;13.40;12.13;;;10.80;99.90;;;;;;5053311;28;20403;-79
2022/04/28 06:34:54;;;;;;;18.07;16.33;;;10.80;99.90;;;;;;5046450;28;20207;-79
2022/04/28 06:37:29;;;;;;;16.23;14.67;;;10.80;99.90;;;;;;5050436;28;20660;-79
2022/04/28 06:39:59;;;;;;;14.87;13.37;;;10.90;99.90;;;;;;5050430;28;20281;-79
2022/04/28 06:42:26;;;;;;;16.03;14.60;;;11.00;99.90;;;;;;5050282;28;20201;-79
2022/04/28 06:45:31;;;;;;;14.37;12.87;;;11.00;99.90;;;;;;5051411;28;20208;-79
2022/04/28 06:48:31;;;;;;;14.03;12.60;;;11.30;99.90;;;;;;5028033;28;20230;-80
2022/04/28 06:51:27;;;;;;;11.63;10.47;;;11.40;99.90;;;;;;5005249;28;20210;-79
2022/04/28 06:54:10;;;;;;;12.57;11.27;;;11.70;99.90;;;;;;5046649;28;20205;-79
2022/04/28 06:56:43;;;;;;;13.97;12.53;;;11.70;99.90;;;;;;5047640;28;20224;-79
2022/04/28 06:59:11;;;;;;;13.60;12.20;;;11.70;99.90;;;;;;5050093;28;20217;-79
2022/04/28 07:01:44;;;;;;;12.30;11.10;;;11.60;99.90;;;;;;5050348;28;20297;-79
2022/04/28 07:04:12;;;;;;;12.97;11.67;;;11.60;99.90;;;;;;5051008;28;20669;-79
2022/04/28 07:06:40;;;;;;;13.60;12.20;;;11.50;99.90;;;;;;5050089;28;20224;-79
2022/04/28 07:09:08;;;;;;;13.23;11.93;;;11.70;99.90;;;;;;5083566;28;20584;-79
2022/04/28 07:11:36;;;;;;;14.77;13.57;;;11.70;99.90;;;;;;5049710;28;20206;-79
2022/04/28 07:14:22;;;;;;;14.30;12.90;;;11.90;99.90;;;;;;5083695;28;20660;-79
2022/04/28 07:17:27;;;;;;;12.83;9.70;;;11.90;99.90;;;;;;5000018;28;20212;-79
2022/04/28 07:20:00;;;;;;;12.70;11.50;;;12.20;99.90;;;;;;5013977;28;20216;-79
2022/04/28 07:22:28;;;;;;;14.67;13.17;;;12.60;99.90;;;;;;5052406;28;20200;-79
2022/04/28 07:24:55;;;;;;;14.17;12.87;;;12.80;99.90;;;;;;5050179;28;20210;-79
2022/04/28 07:27:23;;;;;;;12.93;11.73;;;13.30;99.90;;;;;;5049919;28;20667;-79
2022/04/28 07:29:57;;;;;;;12.03;9.93;;;13.70;99.90;;;;;;5052723;28;20226;-79
2022/04/28 07:32:40;;;;;;;11.53;10.43;;;14.20;99.90;;;;;;5053661;28;20210;-79
2022/04/28 07:35:16;;;;;;;11.83;10.33;;;14.80;99.90;;;;;;5054893;28;20210;-79
2022/04/28 07:38:02;;;;;;;14.77;13.47;;;14.80;99.90;;;;;;5055461;28;20251;-79
2022/04/28 07:40:55;;;;;;;12.73;11.43;;;15.50;99.90;;;;;;5038671;28;20207;-80
2022/04/28 07:43:25;;;;;;;14.10;12.80;;;16.00;99.90;;;;;;5053884;28;20198;-79
2022/04/28 07:45:53;;;;;;;12.90;11.80;;;16.10;99.90;;;;;;5053736;28;20230;-79
2022/04/28 07:50:58;;;;;;;13.00;11.80;;;16.60;99.90;;;;;;5067215;28;20203;-79
2022/04/28 07:53:28;;;;;;;9.53;8.50;;;16.70;99.90;;;;;;5054656;28;20693;-80
2022/04/28 07:56:15;;;;;;;9.37;8.27;;;16.80;99.90;;;;;;5070955;28;20200;-79
2022/04/28 07:58:46;;;;;;;9.20;8.20;;;16.90;99.90;;;;;;5064298;28;20551;-79
2022/04/28 08:01:28;;;;;;;11.10;7.97;;;17.10;99.90;;;;;;5071521;28;20206;-80
2022/04/28 08:03:56;;;;;;;12.23;11.03;;;17.20;99.90;;;;;;5071189;28;20190;-80
2022/04/28 08:06:23;;;;;;;12.53;11.33;;;17.30;99.90;;;;;;5054506;28;20207;-79
2022/04/28 08:08:50;;;;;;;8.27;7.27;;;17.30;99.90;;;;;;5071131;28;20688;-80
2022/04/28 08:11:17;;;;;;;10.27;8.33;;;17.80;99.90;;;;;;5054053;28;20199;-80
2022/04/28 08:13:46;;;;;;;9.87;8.87;;;17.60;99.90;;;;;;5054831;28;20260;-80
2022/04/28 08:16:18;;;;;;;11.00;9.67;;;18.00;99.90;;;;;;5070753;28;20218;-80
2022/04/28 08:18:47;;;;;;;10.50;9.50;;;18.20;99.90;;;;;;5071533;28;20603;-81
2022/04/28 08:21:29;;;;;;;9.67;8.67;;;18.10;99.90;;;;;;5054060;28;20547;-77
2022/04/28 08:23:56;;;;;;;8.73;7.93;;;18.40;99.90;;;;;;5071049;28;20202;-79
2022/04/28 08:26:25;;;;;;;8.53;7.43;;;18.60;99.90;;;;;;5087741;28;20675;-80
2022/04/28 08:28:55;;;;;;;8.80;7.90;;;18.50;99.90;;;;;;5053998;28;20252;-80
2022/04/28 08:31:22;;;;;;;13.07;6.77;;;18.60;99.90;;;;;;5053945;28;20665;-79
2022/04/28 08:33:51;;;;;;;8.23;6.23;;;18.70;99.90;;;;;;5054036;28;20673;-80
2022/04/28 08:36:19;;;;;;;8.07;6.60;;;19.10;99.90;;;;;;5053688;28;20200;-80
2022/04/28 08:38:50;;;;;;;6.83;6.13;;;19.40;99.90;;;;;;5070886;28;20328;-79
2022/04/28 08:41:25;;;;;;;9.90;9.00;;;19.40;99.90;;;;;;5086928;28;20207;-80
2022/04/28 08:44:21;;;;;;;11.73;10.67;;;19.70;99.90;;;;;;5046814;28;20255;-80
2022/04/28 08:46:54;;;;;;;12.73;11.73;;;20.00;99.90;;;;;;5054382;28;20194;-80
2022/04/28 08:49:27;;;;;;;10.77;9.97;;;20.20;99.90;;;;;;5061085;28;20229;-79
2022/04/28 08:52:16;;;;;;;13.37;12.33;;;20.50;99.90;;;;;;5059313;28;20198;-80
2022/04/28 08:54:46;;;;;;;9.63;8.73;;;20.50;99.90;;;;;;5085107;28;20239;-81
2022/04/28 08:57:14;;;;;;;10.77;9.97;;;20.80;99.90;;;;;;5073989;28;20205;-80
2022/04/28 08:59:44;;;;;;;11.03;10.23;;;20.90;99.90;;;;;;5073580;28;20762;-80
2022/04/28 09:02:14;;;;;;;11.90;11.00;;;20.90;99.90;;;;;;5073287;28;20194;-81
2022/04/28 09:05:01;;;;;;;9.80;9.10;;;20.90;99.90;;;;;;5074916;28;20197;-81
2022/04/28 09:07:55;;;;;;;8.80;8.20;;;21.10;99.90;;;;;;5045406;28;20679;-80
2022/04/28 09:10:41;;;;;;;7.53;6.90;;;20.90;96.90;;;;;;5066401;28;20303;-80
2022/04/28 09:16:27;;;;;;;6.97;6.27;;;20.00;93.80;;;;;;5073246;28;20194;-80
2022/04/28 09:18:56;;;;;;;8.80;7.80;;;19.90;94.20;;;;;;5073400;28;20213;-79
2022/04/28 09:21:23;;;;;;;9.67;8.97;;;20.00;93.60;;;;;;5072994;28;20300;-80
2022/04/28 09:23:52;;;;;;;9.60;8.80;;;19.60;94.10;;;;;;5073085;28;20590;-80
2022/04/28 09:26:23;;;;;;;9.13;8.40;;;20.00;95.00;;;;;;5073414;28;20295;-80
2022/04/28 09:28:50;;;;;;;5.73;4.47;;;20.30;95.10;;;;;;5072866;28;20220;-80
2022/04/28 09:31:19;;;;;;;4.80;4.30;;;20.10;92.40;;;;;;5072552;28;20662;-80
2022/04/28 09:33:53;;;;;;;5.40;4.80;;;20.00;93.70;;;;;;5072885;28;20193;-81
2022/04/28 09:36:56;;;;;;;4.20;3.80;;;20.00;91.60;;;;;;5034538;28;20195;-81
2022/04/28 09:42:31;;;;;;;9.20;8.50;;;19.30;92.90;;;;;;5035017;28;20192;-79
2022/04/28 09:45:02;;;;;;;4.20;3.80;;;19.10;92.90;;;;;;5072918;28;20197;-80
2022/04/28 09:47:36;;;;;;;6.73;4.33;;;19.20;94.10;;;;;;5072552;28;20678;-79
2022/04/28 09:50:13;;;;;;;9.20;8.50;;;19.40;93.40;;;;;;5072406;28;20234;-80
2022/04/28 09:52:56;;;;;;;8.90;8.20;;;19.30;92.20;;;;;;5105050;28;20207;-80
2022/04/28 09:55:49;;;;;;;9.40;8.70;;;19.50;94.00;;;;;;5071991;28;20265;-80
2022/04/28 09:58:28;;;;;;;8.47;7.77;;;19.70;91.60;;;;;;5072787;28;20287;-79
2022/04/28 10:01:00;;;;;;;8.50;7.80;;;19.90;93.00;;;;;;5073358;28;20718;-80
2022/04/28 10:03:33;;;;;;;8.07;7.40;;;20.00;92.70;;;;;;5082813;28;20197;-80
2022/04/28 10:06:03;;;;;;;7.90;7.30;;;20.10;93.90;;;;;;5074096;28;20607;-80
2022/04/28 10:08:57;;;;;;;9.03;8.20;;;20.20;92.20;;;;;;5067698;28;20231;-81
2022/04/28 10:11:25;;;;;;;10.07;9.30;;;19.90;92.30;;;;;;5072686;28;20270;-80
2022/04/28 10:13:57;;;;;;;9.40;8.80;;;19.80;93.00;;;;;;5073446;28;20295;-81
2022/04/28 10:16:26;;;;;;;9.40;8.70;;;19.70;92.20;;;;;;5073142;28;20573;-79
2022/04/28 10:18:58;;;;;;;9.80;9.07;;;19.60;91.30;;;;;;5072898;28;20238;-80
2022/04/28 10:21:34;;;;;;;9.60;8.80;;;19.30;92.50;;;;;;5072700;28;20196;-80
2022/04/28 10:32:57;;;;;;;8.50;7.77;;;19.30;92.20;;;;;;5073047;28;20217;-80
2022/04/28 10:35:39;;;;;;;5.37;4.87;;;19.40;92.20;;;;;;5072895;28;20199;-81
2022/04/28 10:38:12;;;;;;;6.10;5.50;;;19.10;92.20;;;;;;5073639;28;20297;-80
2022/04/28 10:40:41;;;;;;;9.70;8.90;;;18.60;91.40;;;;;;5064963;28;20215;-80
2022/04/28 10:43:23;;;;;;;8.83;8.23;;;18.60;91.50;;;;;;5073645;28;20222;-79
2022/04/28 10:45:51;;;;;;;6.63;5.73;;;18.30;92.10;;;;;;5084084;28;20287;-80
2022/04/28 10:48:29;;;;;;;7.53;6.77;;;18.40;92.60;;;;;;5073156;28;20281;-80
2022/04/28 10:51:10;;;;;;;8.50;7.83;;;18.40;92.70;;;;;;5067918;28;20237;-80
2022/04/28 10:54:07;;;;;;;8.50;7.90;;;18.60;93.10;;;;;;5082052;28;20203;-80
2022/04/28 10:57:01;;;;;;;8.37;7.77;;;18.50;91.50;;;;;;5072892;28;20683;-80
2022/04/28 10:59:39;;;;;;;8.40;7.70;;;18.60;91.90;;;;;;5086102;28;20218;-80
2022/04/28 11:02:49;;;;;;;8.97;8.27;;;18.20;90.50;;;;;;5072758;28;20613;-79
2022/04/28 11:05:40;;;;;;;8.87;8.23;;;18.30;91.10;;;;;;5074819;28;20201;-80
2022/04/28 11:08:26;;;;;;;8.13;7.53;;;18.30;92.20;;;;;;5077129;28;20207;-79
2022/04/28 11:11:13;;;;;;;8.63;7.83;;;18.50;92.90;;;;;;5084426;28;20756;-79
2022/04/28 11:13:51;;;;;;;8.33;7.67;;;18.50;91.30;;;;;;5074979;28;20222;-79
2022/04/28 11:16:19;;;;;;;8.83;7.80;;;18.20;91.50;;;;;;5077233;28;20218;-79
2022/04/28 11:18:46;;;;;;;8.50;7.70;;;18.20;92.90;;;;;;5076060;28;20190;-79
2022/04/28 11:21:14;;;;;;;8.70;8.07;;;18.20;93.40;;;;;;5076158;28;20671;-79
2022/04/28 11:23:45;;;;;;;9.30;8.37;;;18.20;91.90;;;;;;5076528;28;20199;-80
2022/04/28 11:26:40;;;;;;;8.73;8.13;;;18.00;91.40;;;;;;5068480;28;20606;-80
2022/04/28 11:29:28;;;;;;;8.20;7.50;;;17.90;92.10;;;;;;5077205;28;20223;-80
2022/04/28 11:31:55;;;;;;;7.50;6.73;;;18.10;92.70;;;;;;5076633;28;20199;-80
2022/04/28 11:34:22;;;;;;;9.23;8.43;;;18.10;92.30;;;;;;5075602;28;20237;-80
2022/04/28 11:36:49;;;;;;;6.97;6.33;;;18.30;91.90;;;;;;5075100;28;20198;-79
2022/04/28 11:39:16;;;;;;;8.00;7.40;;;17.90;91.30;;;;;;5075809;28;20237;-79
2022/04/28 11:41:46;;;;;;;8.17;7.57;;;17.80;91.50;;;;;;5088440;28;20199;-80
2022/04/28 11:44:17;;;;;;;8.63;7.93;;;17.80;92.10;;;;;;5076041;28;20285;-79
2022/04/28 11:46:52;;;;;;;9.47;8.70;;;17.90;92.90;;;;;;5076677;28;20194;-79
2022/04/28 11:49:20;;;;;;;9.13;8.43;;;17.90;92.40;;;;;;5075438;28;20744;-81
2022/04/28 11:51:48;;;;;;;9.03;8.40;;;17.80;92.20;;;;;;5074622;28;20683;-79
2022/04/28 11:54:24;;;;;;;8.67;7.90;;;17.70;91.60;;;;;;5075380;28;20199;-80
2022/04/28 11:57:07;;;;;;;8.50;7.80;;;17.90;93.30;;;;;;5086169;28;20300;-80
2022/04/28 11:59:36;;;;;;;8.63;8.03;;;17.90;92.90;;;;;;5084582;28;20248;-79
2022/04/28 12:02:03;;;;;;;8.73;8.00;;;18.10;93.30;;;;;;5075441;28;20206;-79
2022/04/28 12:04:30;;;;;;;8.07;7.40;;;18.00;91.60;;;;;;5076054;28;20198;-81
2022/04/28 12:06:57;;;;;;;4.60;4.20;;;18.00;92.10;;;;;;5076219;28;20195;-80
2022/04/28 12:14:57;;;;;;;4.43;3.80;;;18.20;92.60;;;;;;5082264;28;20214;-80
2022/04/28 12:20:11;;;;;;;5.37;4.40;;;18.20;92.10;;;;;;5071073;28;20349;-80
2022/04/28 12:22:40;;;;;;;6.57;4.23;;;18.20;92.50;;;;;;5074474;28;20198;-80
2022/04/28 12:25:09;;;;;;;7.73;7.03;;;18.20;91.30;;;;;;5075081;28;20205;-79
2022/04/28 12:27:44;;;;;;;8.27;7.47;;;18.30;92.20;;;;;;5087935;28;20285;-79
2022/04/28 12:30:13;;;;;;;7.97;7.37;;;18.20;91.80;;;;;;5075132;28;20221;-79
2022/04/28 12:32:46;;;;;;;7.60;6.90;;;18.10;92.50;;;;;;5074579;28;20573;-79
2022/04/28 12:35:26;;;;;;;7.60;7.00;;;18.30;92.40;;;;;;5074748;28;20198;-79
2022/04/28 12:37:57;;;;;;;7.90;7.20;;;18.30;93.30;;;;;;5075336;28;20667;-80
2022/04/28 12:40:25;;;;;;;7.70;7.10;;;18.30;92.20;;;;;;5074650;28;20242;-80
2022/04/28 12:42:54;;;;;;;8.00;7.23;;;18.30;92.50;;;;;;5074891;28;20618;-79
2022/04/28 12:45:47;;;;;;;6.70;6.20;;;18.30;91.30;;;;;;5075119;28;20554;-79
2022/04/28 12:48:29;;;;;;;9.30;6.80;;;18.20;92.80;;;;;;5074968;28;20295;-79
2022/04/28 12:51:16;;;;;;;6.77;6.27;;;18.20;92.30;;;;;;5074671;28;20217;-79
2022/04/28 12:53:45;;;;;;;7.00;6.40;;;18.20;91.60;;;;;;5080084;28;20223;-79
2022/04/28 12:56:13;;;;;;;8.30;7.53;;;18.20;91.80;;;;;;5105223;28;20207;-79
2022/04/28 12:58:43;;;;;;;7.70;7.10;;;18.10;92.10;;;;;;5074780;28;20203;-79
2022/04/28 13:01:13;;;;;;;7.77;7.17;;;18.10;92.00;;;;;;5074754;28;20286;-79
2022/04/28 13:03:41;;;;;;;7.80;7.20;;;18.10;93.10;;;;;;5105319;28;20210;-80
2022/04/28 13:06:09;;;;;;;6.00;5.33;;;18.10;92.90;;;;;;5074652;28;20199;-78
2022/04/28 13:08:36;;;;;;;5.00;4.50;;;18.20;92.30;;;;;;5074350;28;20227;-80
2022/04/28 13:11:03;;;;;;;5.03;4.50;;;18.20;92.10;;;;;;5086132;28;20210;-79
2022/04/28 13:13:31;;;;;;;5.03;4.23;;;18.20;92.10;;;;;;5107396;28;20195;-79
2022/04/28 13:15:59;;;;;;;5.17;4.60;;;18.30;91.70;;;;;;5091875;28;20230;-80
2022/04/28 13:18:26;;;;;;;5.90;4.73;;;18.20;91.90;;;;;;5091573;28;20281;-79
2022/04/28 13:20:53;;;;;;;4.70;4.30;;;18.20;91.40;;;;;;5073366;28;20213;-80
2022/04/28 13:23:21;;;;;;;5.07;4.03;;;18.30;91.60;;;;;;5074006;28;20876;-80
2022/04/28 13:25:48;;;;;;;4.13;3.83;;;18.30;92.20;;;;;;5074175;28;20277;-80
2022/04/28 13:28:15;;;;;;;5.03;4.30;;;18.40;92.20;;;;;;5073850;28;20212;-80
2022/04/28 13:30:42;;;;;;;4.20;3.80;;;18.30;92.60;;;;;;5073228;28;20261;-80
2022/04/28 13:33:11;;;;;;;5.80;4.30;;;18.40;92.70;;;;;;5074040;28;20222;-80
2022/04/28 13:35:38;;;;;;;6.07;4.40;;;18.50;92.30;;;;;;5066224;28;20352;-79
2022/04/28 13:38:08;;;;;;;5.73;5.23;;;18.50;92.40;;;;;;5072979;28;20781;-80
2022/04/28 13:40:36;;;;;;;6.93;6.23;;;18.50;92.10;;;;;;5073872;28;20215;-81
2022/04/28 13:43:03;;;;;;;7.53;6.80;;;18.50;91.70;;;;;;5073562;28;20226;-81
2022/04/28 13:45:30;;;;;;;6.37;5.77;;;18.40;91.80;;;;;;5073866;28;20237;-81
2022/04/28 13:47:57;;;;;;;6.83;6.33;;;18.40;91.80;;;;;;5073552;28;20216;-81